createdAt,value
2019-04-03T00:00:19.274Z,35.91
2019-04-03T00:02:46.036Z,35.82
2019-04-03T00:05:13.152Z,35.87
2019-04-03T00:07:40.333Z,35.95
2019-04-03T00:10:08.457Z,36.04
2019-04-03T00:12:35.912Z,36.01
2019-04-03T00:15:04.782Z,35.94
2019-04-03T00:17:31.865Z,35.92
2019-04-03T00:19:59.123Z,36.01
2019-04-03T00:22:26.080Z,36.12
2019-04-03T00:24:53.220Z,36.05
2019-04-03T00:27:22.257Z,36.00
2019-04-03T00:29:51.830Z,35.98
2019-04-03T00:32:18.336Z,36.05
2019-04-03T00:34:45.202Z,35.96
2019-04-03T00:37:12.253Z,36.07
2019-04-03T00:39:39.586Z,36.21
2019-04-03T00:42:06.350Z,36.59
2019-04-03T00:44:36.632Z,36.73
2019-04-03T00:47:03.476Z,36.94
2019-04-03T00:49:30.504Z,37.26
2019-04-03T00:51:58.083Z,37.48
2019-04-03T00:54:26.463Z,37.98
2019-04-03T00:56:56.201Z,39.16
2019-04-03T00:59:23.101Z,39.34
2019-04-03T01:01:50.612Z,40.05
2019-04-03T01:04:18.294Z,40.53
2019-04-03T01:06:45.260Z,41.07
2019-04-03T01:09:12.384Z,41.23
2019-04-03T01:11:39.499Z,41.87
2019-04-03T01:14:06.471Z,42.27
2019-04-03T01:16:34.400Z,42.38
2019-04-03T01:19:01.860Z,42.69
2019-04-03T01:21:29.725Z,43.03
2019-04-03T01:23:59.058Z,43.10
2019-04-03T01:26:26.102Z,43.58
2019-04-03T01:28:52.984Z,43.83
2019-04-03T01:31:20.145Z,44.08
2019-04-03T01:33:47.253Z,43.79
2019-04-03T01:36:14.103Z,44.44
2019-04-03T01:38:41.075Z,45.03
2019-04-03T01:41:07.969Z,45.34
2019-04-03T01:43:34.815Z,45.51
2019-04-03T01:46:02.190Z,45.96
2019-04-03T01:48:29.212Z,45.94
2019-04-03T01:50:57.779Z,46.16
2019-04-03T01:53:27.235Z,46.22
2019-04-03T01:55:54.477Z,46.42
2019-04-03T01:58:21.744Z,46.34
2019-04-03T02:00:49.097Z,46.66
2019-04-03T02:03:16.596Z,46.81
2019-04-03T02:05:45.852Z,47.04
2019-04-03T02:08:14.725Z,47.63
2019-04-03T02:10:41.671Z,48.37
2019-04-03T02:13:08.722Z,48.46
2019-04-03T02:15:35.734Z,48.71
2019-04-03T02:18:03.001Z,49.56
2019-04-03T02:20:29.867Z,50.57
2019-04-03T02:22:59.650Z,51.19
2019-04-03T02:25:25.331Z,50.89
2019-04-03T02:27:52.390Z,51.05
2019-04-03T02:30:19.611Z,51.71
2019-04-03T02:32:46.723Z,52.16
2019-04-03T02:35:14.646Z,53.10
2019-04-03T02:37:42.017Z,54.08
2019-04-03T02:40:10.103Z,54.54
2019-04-03T02:42:40.546Z,54.70
2019-04-03T02:45:07.594Z,55.03
2019-04-03T02:47:35.026Z,55.69
2019-04-03T02:50:02.681Z,55.94
2019-04-03T02:52:29.599Z,56.30
2019-04-03T02:54:57.124Z,55.79
2019-04-03T02:57:24.272Z,55.70
2019-04-03T02:59:51.661Z,56.20
2019-04-03T03:02:18.882Z,56.59
2019-04-03T03:04:46.087Z,56.88
2019-04-03T03:07:13.337Z,56.96
2019-04-03T03:09:40.379Z,56.99
2019-04-03T03:12:07.855Z,56.99
2019-04-03T03:14:39.304Z,57.55
2019-04-03T03:17:05.411Z,57.89
2019-04-03T03:19:33.803Z,58.55
2019-04-03T03:22:02.410Z,59.40
2019-04-03T03:24:32.905Z,59.04
2019-04-03T03:27:00.387Z,59.23
2019-04-03T03:29:28.408Z,59.93
2019-04-03T03:32:08.222Z,59.80
2019-04-03T03:34:49.307Z,60.24
2019-04-03T03:37:00.133Z,60.97
2019-04-03T03:39:25.031Z,61.44
2019-04-03T03:41:59.208Z,61.89
2019-04-03T03:44:27.299Z,62.36
2019-04-03T03:46:59.350Z,62.42
2019-04-03T03:49:27.672Z,62.04
2019-04-03T03:51:55.199Z,62.53
2019-04-03T03:54:24.436Z,62.09
2019-04-03T03:56:52.105Z,62.45
2019-04-03T03:59:19.655Z,61.99
2019-04-03T04:01:48.682Z,62.15
2019-04-03T04:04:16.240Z,61.81
2019-04-03T04:06:43.198Z,62.13
2019-04-03T04:09:10.311Z,61.83
2019-04-03T04:11:38.365Z,61.42
2019-04-03T04:14:05.450Z,61.62
2019-04-03T04:16:36.973Z,61.69
2019-04-03T04:19:03.939Z,61.85
2019-04-03T04:21:31.369Z,61.03
2019-04-03T04:23:58.914Z,60.89
2019-04-03T04:26:26.416Z,61.48
2019-04-03T04:28:53.890Z,61.05
2019-04-03T04:31:20.991Z,61.66
2019-04-03T04:33:48.369Z,61.28
2019-04-03T04:36:15.456Z,61.24
2019-04-03T04:38:42.888Z,61.64
2019-04-03T04:41:09.772Z,62.05
2019-04-03T04:43:37.644Z,62.37
2019-04-03T04:46:05.355Z,62.64
2019-04-03T04:48:32.225Z,63.29
2019-04-03T04:50:59.308Z,63.22
2019-04-03T04:53:29.269Z,63.90
2019-04-03T04:55:54.985Z,63.94
2019-04-03T04:58:22.449Z,64.67
2019-04-03T05:00:50.671Z,64.04
2019-04-03T05:03:18.042Z,63.88
2019-04-03T05:05:45.070Z,63.73
2019-04-03T05:08:12.743Z,63.84
2019-04-03T05:10:39.625Z,63.35
2019-04-03T05:13:06.559Z,63.53
2019-04-03T05:15:33.572Z,63.74
2019-04-03T05:18:01.202Z,64.22
2019-04-03T05:20:28.058Z,64.59
2019-04-03T05:22:55.738Z,64.66
2019-04-03T05:25:22.825Z,65.00
2019-04-03T05:27:50.244Z,65.23
2019-04-03T05:30:32.237Z,65.26
2019-04-03T05:32:59.613Z,65.16
2019-04-03T05:35:26.813Z,64.78
2019-04-03T05:37:53.859Z,64.97
2019-04-03T05:40:20.762Z,64.95
2019-04-03T05:42:47.904Z,65.21
2019-04-03T05:45:14.697Z,65.82
2019-04-03T05:47:41.533Z,66.22
2019-04-03T05:50:08.541Z,66.21
2019-04-03T05:52:35.800Z,66.01
2019-04-03T05:55:05.322Z,66.47
2019-04-03T05:57:32.229Z,66.55
2019-04-03T06:00:01.856Z,67.18
2019-04-03T06:02:28.590Z,67.50
2019-04-03T06:04:55.710Z,68.32
2019-04-03T06:07:22.739Z,68.61
2019-04-03T06:09:49.585Z,69.56
2019-04-03T06:12:18.742Z,69.08
2019-04-03T06:14:45.525Z,69.72
2019-04-03T06:17:12.421Z,69.30
2019-04-03T06:19:39.898Z,69.40
2019-04-03T06:22:09.845Z,69.42
2019-04-03T06:24:35.967Z,69.67
2019-04-03T06:27:03.911Z,70.60
2019-04-03T06:29:30.792Z,70.34
2019-04-03T06:31:58.461Z,70.20
2019-04-03T06:34:25.915Z,69.70
2019-04-03T06:36:53.107Z,69.79
2019-04-03T06:39:22.316Z,69.61
2019-04-03T06:41:48.885Z,69.87
2019-04-03T06:44:15.706Z,69.84
2019-04-03T06:46:42.887Z,69.94
2019-04-03T06:49:11.754Z,70.56
2019-04-03T06:51:39.066Z,70.99
2019-04-03T06:54:07.848Z,70.81
2019-04-03T06:56:34.799Z,71.14
2019-04-03T06:59:02.220Z,71.17
2019-04-03T07:01:30.638Z,71.15
2019-04-03T07:03:57.693Z,71.17
2019-04-03T07:06:24.699Z,71.25
2019-04-03T07:08:51.575Z,71.51
2019-04-03T07:11:23.756Z,71.54
2019-04-03T07:13:49.768Z,72.16
2019-04-03T07:16:16.528Z,72.46
2019-04-03T07:18:43.785Z,72.80
2019-04-03T07:21:10.938Z,73.29
2019-04-03T07:23:38.014Z,72.83
2019-04-03T07:26:05.646Z,73.18
2019-04-03T07:28:34.495Z,72.65
2019-04-03T07:31:02.198Z,72.21
2019-04-03T07:33:29.463Z,72.28
2019-04-03T07:35:56.409Z,72.21
2019-04-03T07:38:23.491Z,72.14
2019-04-03T07:40:51.991Z,71.67
2019-04-03T07:43:20.361Z,71.60
2019-04-03T07:45:47.216Z,71.22
2019-04-03T07:48:14.405Z,71.51
2019-04-03T07:50:42.031Z,72.02
2019-04-03T07:53:09.351Z,71.24
2019-04-03T07:55:38.199Z,70.84
2019-04-03T07:58:05.095Z,70.81
2019-04-03T08:00:32.415Z,70.18
2019-04-03T08:02:59.462Z,69.68
2019-04-03T08:05:30.995Z,69.84
2019-04-03T08:07:58.163Z,69.20
2019-04-03T08:10:25.411Z,69.14
2019-04-03T08:12:52.197Z,68.50
2019-04-03T08:15:19.314Z,67.71
2019-04-03T08:17:49.194Z,67.88
2019-04-03T08:20:16.247Z,67.63
2019-04-03T08:22:43.007Z,66.49
2019-04-03T08:25:11.825Z,65.68
2019-04-03T08:27:39.446Z,66.06
2019-04-03T08:30:08.637Z,65.96
2019-04-03T08:32:36.343Z,65.59
2019-04-03T08:35:18.720Z,64.88
2019-04-03T08:37:35.292Z,65.20
2019-04-03T08:40:05.303Z,65.82
2019-04-03T08:42:32.914Z,67.20
2019-04-03T08:45:00.229Z,66.54
2019-04-03T08:47:27.081Z,65.76
2019-04-03T08:49:56.387Z,65.33
2019-04-03T08:52:22.859Z,65.34
2019-04-03T08:54:50.336Z,65.32
2019-04-03T08:57:19.927Z,65.28
2019-04-03T08:59:46.345Z,65.70
2019-04-03T09:02:13.912Z,65.77
2019-04-03T09:04:41.455Z,66.01
2019-04-03T09:07:08.323Z,66.09
2019-04-03T09:09:35.740Z,65.78
2019-04-03T09:12:03.174Z,65.20
2019-04-03T09:14:30.382Z,64.34
2019-04-03T09:17:03.540Z,63.12
2019-04-03T09:19:32.744Z,63.21
2019-04-03T09:22:00.515Z,63.29
2019-04-03T09:24:29.628Z,63.60
2019-04-03T09:26:57.070Z,63.19
2019-04-03T09:29:24.182Z,62.76
2019-04-03T09:31:52.495Z,63.09
2019-04-03T09:34:20.673Z,63.72
2019-04-03T09:36:48.115Z,64.23
2019-04-03T09:39:15.133Z,63.59
2019-04-03T09:41:42.067Z,63.86
2019-04-03T09:44:11.374Z,63.54
2019-04-03T09:46:38.164Z,62.74
2019-04-03T09:49:05.730Z,62.95
2019-04-03T09:51:34.345Z,62.57
2019-04-03T09:54:01.433Z,61.93
2019-04-03T09:56:31.059Z,61.57
2019-04-03T09:58:58.142Z,61.61
2019-04-03T10:01:25.365Z,61.26
2019-04-03T10:03:55.068Z,60.92
2019-04-03T10:06:21.461Z,60.39
2019-04-03T10:08:48.628Z,60.96
2019-04-03T10:11:17.700Z,60.87
2019-04-03T10:13:44.655Z,60.74
2019-04-03T10:16:11.410Z,60.63
2019-04-03T10:18:39.074Z,60.74
2019-04-03T10:21:08.067Z,61.66
2019-04-03T10:23:34.940Z,62.14
2019-04-03T10:26:02.299Z,63.16
2019-04-03T10:28:29.213Z,64.10
2019-04-03T10:30:57.169Z,63.42
2019-04-03T10:33:24.428Z,62.78
2019-04-03T10:35:51.548Z,62.28
2019-04-03T10:38:19.041Z,63.00
2019-04-03T10:40:46.553Z,63.77
2019-04-03T10:43:13.899Z,64.79
2019-04-03T10:45:41.660Z,64.84
2019-04-03T10:48:09.030Z,65.68
2019-04-03T10:50:37.885Z,65.43
2019-04-03T10:53:05.515Z,65.22
2019-04-03T10:55:32.628Z,64.84
2019-04-03T10:58:01.874Z,64.46
2019-04-03T11:00:29.439Z,63.52
2019-04-03T11:02:56.594Z,63.29
2019-04-03T11:05:23.823Z,63.03
2019-04-03T11:07:53.025Z,63.24
2019-04-03T11:10:23.362Z,63.09
2019-04-03T11:12:49.004Z,62.66
2019-04-03T11:15:16.953Z,62.84
2019-04-03T11:17:44.615Z,62.96
2019-04-03T11:20:14.170Z,62.72
2019-04-03T11:22:43.298Z,62.58
2019-04-03T11:25:15.298Z,63.11
2019-04-03T11:27:44.660Z,63.45
2019-04-03T11:30:17.635Z,63.94
2019-04-03T11:32:43.715Z,63.75
2019-04-03T11:35:15.017Z,64.14
2019-04-03T11:37:42.739Z,64.06
2019-04-03T11:40:11.772Z,63.90
2019-04-03T11:42:38.958Z,64.20
2019-04-03T11:45:09.197Z,64.37
2019-04-03T11:47:36.454Z,64.69
2019-04-03T11:50:07.995Z,64.81
2019-04-03T11:52:35.290Z,64.12
2019-04-03T11:55:04.724Z,63.67
2019-04-03T11:57:31.912Z,62.68
2019-04-03T11:59:59.118Z,62.82
2019-04-03T12:02:26.653Z,62.48
2019-04-03T12:04:53.474Z,61.94
2019-04-03T12:07:20.710Z,61.88
2019-04-03T12:09:50.491Z,60.84
2019-04-03T12:12:17.533Z,60.06
2019-04-03T12:14:44.880Z,59.62
2019-04-03T12:17:12.397Z,58.96
2019-04-03T12:19:39.465Z,58.56
2019-04-03T12:22:06.884Z,58.23
2019-04-03T12:24:33.982Z,58.30
2019-04-03T12:27:01.038Z,58.18
2019-04-03T12:29:30.300Z,58.16
2019-04-03T12:31:58.567Z,58.38
2019-04-03T12:34:25.582Z,59.30
2019-04-03T12:36:52.935Z,59.39
2019-04-03T12:39:27.879Z,59.45
2019-04-03T12:41:55.501Z,59.28
2019-04-03T12:44:23.415Z,59.56
2019-04-03T12:46:51.521Z,59.86
2019-04-03T12:49:20.054Z,59.97
2019-04-03T12:51:47.989Z,60.14
2019-04-03T12:54:15.381Z,59.99
2019-04-03T12:56:42.475Z,59.51
2019-04-03T12:59:10.013Z,58.38
2019-04-03T13:01:37.789Z,57.29
2019-04-03T13:04:05.745Z,57.13
2019-04-03T13:06:32.757Z,56.83
2019-04-03T13:09:01.726Z,56.82
2019-04-03T13:11:29.271Z,56.45
2019-04-03T13:13:57.266Z,56.25
2019-04-03T13:16:24.789Z,56.64
2019-04-03T13:18:52.210Z,56.98
2019-04-03T13:21:19.164Z,56.45
2019-04-03T13:23:46.339Z,56.78
2019-04-03T13:26:14.362Z,57.08
2019-04-03T13:28:42.070Z,56.99
2019-04-03T13:31:09.690Z,57.01
2019-04-03T13:33:38.710Z,56.81
2019-04-03T13:36:06.259Z,57.01
2019-04-03T13:38:33.164Z,56.75
2019-04-03T13:41:04.628Z,56.44
2019-04-03T13:43:31.620Z,56.43
2019-04-03T13:45:59.029Z,56.31
2019-04-03T13:48:26.416Z,56.73
2019-04-03T13:50:55.172Z,57.08
2019-04-03T13:53:25.381Z,56.84
2019-04-03T13:55:51.492Z,56.96
2019-04-03T13:58:22.129Z,57.07
2019-04-03T14:00:58.618Z,57.57
2019-04-03T14:03:19.129Z,57.98
2019-04-03T14:05:47.053Z,57.75
2019-04-03T14:08:14.354Z,57.62
2019-04-03T14:10:41.161Z,57.71
2019-04-03T14:13:10.866Z,57.81
2019-04-03T14:15:41.711Z,58.33
2019-04-03T14:18:09.417Z,58.88
2019-04-03T14:20:36.595Z,59.19
2019-04-03T14:23:04.742Z,59.21
2019-04-03T14:25:37.092Z,58.80
2019-04-03T14:28:02.848Z,58.95
2019-04-03T14:30:32.363Z,59.09
2019-04-03T14:33:01.913Z,59.04
2019-04-03T14:35:50.375Z,59.29
2019-04-03T14:37:59.889Z,58.79
2019-04-03T14:40:27.248Z,59.35
2019-04-03T14:42:57.837Z,59.81
2019-04-03T14:45:26.365Z,59.87
2019-04-03T14:47:54.878Z,59.79
2019-04-03T14:50:22.457Z,59.51
2019-04-03T14:52:50.574Z,59.39
2019-04-03T14:55:20.755Z,59.85
2019-04-03T14:57:46.669Z,59.96
2019-04-03T15:00:26.439Z,60.18
2019-04-03T15:02:43.619Z,59.91
2019-04-03T15:05:11.030Z,60.08
2019-04-03T15:07:38.553Z,59.94
2019-04-03T15:10:07.407Z,59.83
2019-04-03T15:12:40.699Z,60.59
2019-04-03T15:15:09.697Z,60.70
2019-04-03T15:17:38.944Z,61.32
2019-04-03T15:20:10.400Z,61.60
2019-04-03T15:22:37.586Z,63.27
2019-04-03T15:25:06.710Z,64.63
2019-04-03T15:27:33.695Z,65.85
2019-04-03T15:30:01.066Z,67.02
2019-04-03T15:32:28.640Z,68.69
2019-04-03T15:35:00.983Z,68.39
2019-04-03T15:37:28.159Z,68.54
2019-04-03T15:39:58.237Z,68.46
2019-04-03T15:42:24.685Z,68.20
2019-04-03T15:44:52.502Z,68.34
2019-04-03T15:47:34.324Z,68.51
2019-04-03T15:49:51.524Z,68.59
2019-04-03T15:52:19.184Z,69.43
2019-04-03T15:54:46.365Z,69.57
2019-04-03T15:57:13.640Z,70.64
2019-04-03T15:59:40.931Z,70.98
2019-04-03T16:02:10.505Z,70.11
2019-04-03T16:04:37.204Z,70.21
2019-04-03T16:07:05.115Z,70.69
2019-04-03T16:09:35.199Z,70.81
2019-04-03T16:12:04.162Z,70.68
2019-04-03T16:14:31.884Z,71.02
2019-04-03T16:17:01.719Z,70.52
2019-04-03T16:19:28.169Z,70.59
2019-04-03T16:21:57.368Z,71.24
2019-04-03T16:24:24.830Z,71.17
2019-04-03T16:26:53.175Z,71.84
2019-04-03T16:29:22.255Z,72.02
2019-04-03T16:31:54.122Z,71.85
2019-04-03T16:34:23.034Z,71.20
2019-04-03T16:36:50.803Z,71.82
2019-04-03T16:39:19.181Z,71.89
2019-04-03T16:41:46.650Z,71.34
2019-04-03T16:44:13.512Z,71.01
2019-04-03T16:46:42.123Z,71.47
2019-04-03T16:49:11.127Z,71.80
2019-04-03T16:51:40.554Z,70.92
2019-04-03T16:54:10.345Z,71.36
2019-04-03T16:56:38.636Z,71.67
2019-04-03T16:59:07.312Z,71.02
2019-04-03T17:01:34.944Z,71.03
2019-04-03T17:04:03.913Z,71.83
2019-04-03T17:06:30.814Z,71.93
2019-04-03T17:08:58.641Z,71.71
2019-04-03T17:11:26.337Z,71.04
2019-04-03T17:13:54.292Z,70.75
2019-04-03T17:16:21.407Z,72.50
2019-04-03T17:18:48.175Z,71.53
2019-04-03T17:21:15.325Z,71.51
2019-04-03T17:23:44.828Z,71.58
2019-04-03T17:26:11.335Z,70.98
2019-04-03T17:28:40.522Z,70.79
2019-04-03T17:31:06.851Z,70.64
2019-04-03T17:33:35.627Z,71.12
2019-04-03T17:36:03.291Z,72.02
2019-04-03T17:38:32.583Z,71.63
2019-04-03T17:40:59.590Z,72.03
2019-04-03T17:43:28.526Z,71.80
2019-04-03T17:45:55.389Z,71.45
2019-04-03T17:48:22.835Z,71.36
2019-04-03T17:50:51.425Z,71.38
2019-04-03T17:53:18.880Z,71.86
2019-04-03T17:55:46.081Z,72.14
2019-04-03T17:58:12.851Z,71.93
2019-04-03T18:00:41.315Z,71.46
2019-04-03T18:03:08.566Z,71.42
2019-04-03T18:05:36.601Z,71.28
2019-04-03T18:08:03.489Z,71.24
2019-04-03T18:10:31.088Z,72.00
2019-04-03T18:12:58.013Z,72.32
2019-04-03T18:15:27.223Z,72.58
2019-04-03T18:17:54.689Z,71.95
2019-04-03T18:20:23.409Z,72.12
2019-04-03T18:22:55.284Z,72.18
2019-04-03T18:25:22.571Z,71.40
2019-04-03T18:27:49.497Z,71.66
2019-04-03T18:30:18.760Z,71.75
2019-04-03T18:32:46.038Z,71.72
2019-04-03T18:35:14.426Z,71.00
2019-04-03T18:37:41.534Z,71.52
2019-04-03T18:40:10.201Z,71.42
2019-04-03T18:42:37.503Z,71.02
2019-04-03T18:45:05.591Z,70.94
2019-04-03T18:47:41.101Z,70.49
2019-04-03T18:50:05.371Z,70.24
2019-04-03T18:52:34.992Z,70.54
2019-04-03T18:55:05.439Z,70.96
2019-04-03T18:57:32.513Z,70.91
2019-04-03T19:00:00.678Z,71.32
2019-04-03T19:02:28.272Z,70.69
2019-04-03T19:05:02.008Z,70.44
2019-04-03T19:07:24.397Z,70.17
2019-04-03T19:09:52.458Z,71.44
2019-04-03T19:12:19.809Z,71.82
2019-04-03T19:14:48.971Z,71.31
2019-04-03T19:17:20.427Z,71.38
2019-04-03T19:19:47.396Z,71.50
2019-04-03T19:22:19.116Z,71.09
2019-04-03T19:24:47.098Z,71.66
2019-04-03T19:27:14.428Z,72.78
2019-04-03T19:29:44.435Z,72.54
2019-04-03T19:32:12.198Z,72.50
2019-04-03T19:34:40.060Z,73.17
2019-04-03T19:37:06.919Z,74.31
2019-04-03T19:39:33.839Z,74.60
2019-04-03T19:42:00.843Z,73.75
2019-04-03T19:44:27.715Z,73.50
2019-04-03T19:46:54.978Z,73.83
2019-04-03T19:49:22.439Z,74.11
2019-04-03T19:51:49.524Z,73.06
2019-04-03T19:54:17.516Z,74.16
2019-04-03T19:56:45.180Z,73.76
2019-04-03T19:59:14.567Z,73.70
2019-04-03T20:01:41.867Z,73.94
2019-04-03T20:04:10.097Z,73.75
2019-04-03T20:06:37.667Z,74.10
2019-04-03T20:09:08.381Z,74.58
2019-04-03T20:11:35.934Z,74.81
2019-04-03T20:14:03.925Z,74.45
2019-04-03T20:16:31.006Z,74.08
2019-04-03T20:18:58.211Z,73.78
2019-04-03T20:21:25.402Z,73.81
2019-04-03T20:23:52.439Z,73.99
2019-04-03T20:26:19.806Z,74.11
2019-04-03T20:28:47.335Z,74.62
2019-04-03T20:31:14.888Z,74.89
2019-04-03T20:33:42.888Z,74.96
2019-04-03T20:36:10.235Z,75.07
2019-04-03T20:38:37.485Z,75.38
2019-04-03T20:41:04.863Z,74.98
2019-04-03T20:43:32.291Z,74.82
2019-04-03T20:45:59.241Z,74.74
2019-04-03T20:48:28.761Z,75.21
2019-04-03T20:50:56.458Z,75.00
2019-04-03T20:53:24.082Z,74.86
2019-04-03T20:55:51.509Z,75.78
2019-04-03T20:58:19.456Z,76.02
2019-04-03T21:00:49.427Z,76.06
2019-04-03T21:03:16.217Z,76.05
2019-04-03T21:05:43.251Z,75.55
2019-04-03T21:08:10.341Z,75.79
2019-04-03T21:10:37.307Z,75.35
2019-04-03T21:13:04.612Z,75.12
2019-04-03T21:15:32.180Z,75.02
2019-04-03T21:18:00.106Z,75.43
2019-04-03T21:20:27.076Z,75.69
2019-04-03T21:22:54.956Z,75.79
2019-04-03T21:25:22.169Z,75.64
2019-04-03T21:27:49.549Z,75.62
2019-04-03T21:30:17.681Z,75.77
2019-04-03T21:32:44.612Z,75.23
2019-04-03T21:35:13.539Z,75.35
2019-04-03T21:37:40.700Z,75.17
2019-04-03T21:40:08.324Z,74.91
2019-04-03T21:42:35.575Z,74.46
2019-04-03T21:45:07.586Z,74.87
2019-04-03T21:47:35.029Z,74.87
2019-04-03T21:50:03.873Z,75.25
2019-04-03T21:52:33.741Z,75.51
2019-04-03T21:55:00.925Z,74.97
2019-04-03T21:57:30.997Z,75.65
2019-04-03T21:59:58.802Z,75.61
2019-04-03T22:02:25.824Z,75.20
2019-04-03T22:04:53.956Z,74.94
2019-04-03T22:07:24.004Z,75.17
2019-04-03T22:09:50.856Z,75.05
2019-04-03T22:12:17.756Z,75.05
2019-04-03T22:14:45.074Z,75.80
2019-04-03T22:17:15.403Z,75.82
2019-04-03T22:19:42.171Z,75.26
2019-04-03T22:22:09.776Z,74.86
2019-04-03T22:24:37.748Z,75.06
2019-04-03T22:27:05.821Z,75.56
2019-04-03T22:29:32.598Z,75.42
2019-04-03T22:32:00.099Z,75.81
2019-04-03T22:34:27.954Z,75.30
2019-04-03T22:36:56.572Z,75.78
2019-04-03T22:39:23.779Z,75.60
2019-04-03T22:41:51.001Z,75.04
2019-04-03T22:44:19.067Z,73.95
2019-04-03T22:46:46.399Z,73.97
2019-04-03T22:49:13.237Z,74.06
2019-04-03T22:51:40.156Z,75.02
2019-04-03T22:54:07.570Z,75.47
2019-04-03T22:56:34.604Z,75.44
2019-04-03T22:59:01.741Z,75.67
2019-04-03T23:01:29.864Z,75.64
2019-04-03T23:03:58.104Z,75.13
2019-04-03T23:06:25.370Z,74.90
2019-04-03T23:08:53.881Z,75.32
2019-04-03T23:11:23.983Z,75.25
2019-04-03T23:13:51.254Z,75.70
2019-04-03T23:16:18.714Z,74.65
2019-04-03T23:18:47.524Z,75.22
2019-04-03T23:21:15.234Z,75.68
2019-04-03T23:23:44.083Z,75.59
2019-04-03T23:26:11.417Z,75.60
2019-04-03T23:28:40.581Z,76.01
2019-04-03T23:31:08.228Z,75.94
2019-04-03T23:33:35.965Z,75.16
2019-04-03T23:36:04.568Z,75.28
2019-04-03T23:38:37.302Z,75.46
2019-04-03T23:41:06.170Z,75.91
2019-04-03T23:43:34.295Z,76.06
2019-04-03T23:46:02.611Z,76.04
2019-04-03T23:48:29.763Z,76.69
2019-04-03T23:50:57.260Z,76.41
2019-04-03T23:53:26.894Z,76.31
2019-04-03T23:55:57.975Z,75.93
2019-04-03T23:58:26.749Z,75.72
